createdAt,value
2022-12-31T00:02:18.852Z,100.00
2022-12-31T00:04:45.366Z,100.00
2022-12-31T00:07:11.901Z,100.00
2022-12-31T00:09:38.303Z,100.00
2022-12-31T00:12:04.912Z,100.00
2022-12-31T00:14:31.372Z,99.89
2022-12-31T00:16:57.803Z,99.48
2022-12-31T00:19:24.281Z,99.39
2022-12-31T00:21:50.713Z,99.48
2022-12-31T00:24:17.797Z,99.58
2022-12-31T00:26:44.240Z,99.11
2022-12-31T00:29:10.695Z,98.01
2022-12-31T00:31:38.410Z,97.61
2022-12-31T00:34:05.775Z,97.45
2022-12-31T00:36:38.051Z,98.09
2022-12-31T00:39:07.180Z,97.55
2022-12-31T00:41:34.135Z,97.48
2022-12-31T00:44:00.682Z,96.91
2022-12-31T00:46:27.621Z,96.65
2022-12-31T00:48:54.085Z,96.46
2022-12-31T00:51:23.177Z,95.57
2022-12-31T00:53:49.846Z,95.82
2022-12-31T00:56:19.115Z,94.74
2022-12-31T00:58:45.756Z,94.42
2022-12-31T01:01:17.209Z,94.02
2022-12-31T01:03:43.826Z,93.65
2022-12-31T01:06:10.538Z,93.51
2022-12-31T01:08:37.303Z,93.76
2022-12-31T01:11:19.411Z,92.64
2022-12-31T01:13:47.563Z,91.99
2022-12-31T01:16:14.731Z,91.71
2022-12-31T01:18:41.674Z,91.23
2022-12-31T01:21:10.426Z,90.67
2022-12-31T01:23:37.127Z,90.60
2022-12-31T01:26:06.050Z,89.88
2022-12-31T01:28:33.315Z,89.42
2022-12-31T01:31:04.668Z,89.84
2022-12-31T01:33:31.127Z,89.34
2022-12-31T01:36:02.321Z,88.88
2022-12-31T01:38:28.851Z,89.03
2022-12-31T01:40:55.273Z,88.98
2022-12-31T01:43:22.056Z,88.46
2022-12-31T01:45:52.576Z,88.19
2022-12-31T01:48:26.434Z,88.29
2022-12-31T01:50:54.732Z,88.70
2022-12-31T01:53:21.717Z,88.32
2022-12-31T01:56:00.077Z,87.91
2022-12-31T01:58:30.859Z,87.83
2022-12-31T02:00:58.957Z,87.81
2022-12-31T02:03:27.563Z,87.48
2022-12-31T02:06:19.645Z,87.19
2022-12-31T02:08:46.258Z,86.69
2022-12-31T02:11:39.050Z,86.96
2022-12-31T02:14:19.220Z,86.52
2022-12-31T02:16:54.847Z,86.28
2022-12-31T02:19:24.251Z,86.61
2022-12-31T02:22:02.655Z,85.95
2022-12-31T02:24:45.857Z,87.05
2022-12-31T02:27:38.658Z,91.23
2022-12-31T02:30:18.095Z,92.41
2022-12-31T02:33:06.553Z,93.31
2022-12-31T02:35:53.803Z,94.95
2022-12-31T02:38:34.041Z,95.41
2022-12-31T02:41:01.115Z,95.32
2022-12-31T02:43:28.378Z,95.28
2022-12-31T02:46:31.163Z,95.93
2022-12-31T02:49:23.614Z,96.29
2022-12-31T02:52:02.301Z,96.27
2022-12-31T02:54:39.680Z,96.80
2022-12-31T02:57:06.443Z,96.18
2022-12-31T03:00:08.867Z,96.17
2022-12-31T03:02:39.678Z,95.80
2022-12-31T03:05:08.235Z,94.72
2022-12-31T03:07:34.844Z,94.77
2022-12-31T03:10:01.598Z,94.38
2022-12-31T03:12:46.766Z,94.42
2022-12-31T03:15:22.497Z,93.27
2022-12-31T03:17:59.697Z,92.85
2022-12-31T03:20:57.279Z,93.23
2022-12-31T03:23:26.678Z,91.77
2022-12-31T03:25:53.444Z,91.13
2022-12-31T03:28:22.922Z,90.76
2022-12-31T03:30:55.665Z,90.63
2022-12-31T03:33:22.962Z,90.04
2022-12-31T03:35:50.444Z,89.83
2022-12-31T03:38:17.558Z,90.15
2022-12-31T03:40:50.485Z,89.67
2022-12-31T03:43:19.254Z,89.28
2022-12-31T03:45:53.830Z,88.76
2022-12-31T03:48:22.432Z,88.28
2022-12-31T03:50:49.329Z,88.37
2022-12-31T03:53:16.276Z,87.90
2022-12-31T03:55:42.927Z,87.33
2022-12-31T03:58:09.379Z,87.37
2022-12-31T04:00:35.989Z,86.84
2022-12-31T04:03:02.587Z,88.01
2022-12-31T04:05:29.025Z,89.05
2022-12-31T04:07:56.479Z,89.81
2022-12-31T04:10:23.028Z,89.39
2022-12-31T04:12:49.794Z,89.16
2022-12-31T04:15:19.594Z,89.11
2022-12-31T04:17:46.775Z,89.22
2022-12-31T04:20:13.874Z,89.14
2022-12-31T04:22:40.332Z,89.37
2022-12-31T04:25:11.168Z,89.90
2022-12-31T04:27:41.690Z,89.69
2022-12-31T04:30:09.499Z,89.12
2022-12-31T04:32:36.012Z,88.94
2022-12-31T04:35:02.511Z,88.86
2022-12-31T04:37:28.981Z,88.32
2022-12-31T04:39:58.968Z,87.73
2022-12-31T04:42:28.598Z,88.28
2022-12-31T04:44:55.026Z,87.57
2022-12-31T04:47:23.809Z,86.82
2022-12-31T04:49:50.611Z,87.10
2022-12-31T04:52:17.102Z,86.99
2022-12-31T04:54:43.681Z,86.45
2022-12-31T04:57:10.105Z,86.18
2022-12-31T04:59:36.627Z,86.21
2022-12-31T05:02:03.295Z,85.53
2022-12-31T05:04:29.913Z,85.22
2022-12-31T05:06:57.383Z,85.16
2022-12-31T05:09:24.200Z,85.29
2022-12-31T05:11:50.938Z,85.11
2022-12-31T05:14:17.594Z,84.68
2022-12-31T05:16:44.109Z,85.22
2022-12-31T05:19:10.658Z,84.74
2022-12-31T05:21:37.101Z,84.25
2022-12-31T05:24:03.680Z,84.14
2022-12-31T05:26:30.175Z,84.28
2022-12-31T05:28:56.613Z,83.90
2022-12-31T05:31:23.332Z,83.62
2022-12-31T05:33:49.764Z,84.35
2022-12-31T05:36:16.273Z,84.06
2022-12-31T05:38:43.041Z,84.01
2022-12-31T05:41:10.580Z,83.38
2022-12-31T05:43:37.107Z,83.04
2022-12-31T05:46:04.461Z,82.76
2022-12-31T05:48:31.445Z,82.75
2022-12-31T05:50:58.041Z,82.85
2022-12-31T05:53:24.640Z,83.31
2022-12-31T05:55:51.129Z,82.77
2022-12-31T05:58:17.619Z,82.58
2022-12-31T06:00:44.529Z,82.72
2022-12-31T06:03:11.375Z,82.50
2022-12-31T06:05:43.970Z,82.87
2022-12-31T06:08:11.995Z,82.49
2022-12-31T06:10:39.510Z,82.33
2022-12-31T06:13:06.627Z,81.86
2022-12-31T06:15:40.009Z,81.88
2022-12-31T06:18:06.765Z,82.34
2022-12-31T06:20:33.594Z,81.51
2022-12-31T06:23:00.041Z,81.36
2022-12-31T06:25:26.703Z,81.29
2022-12-31T06:27:53.207Z,81.16
2022-12-31T06:30:19.621Z,80.99
2022-12-31T06:32:46.080Z,80.78
2022-12-31T06:35:13.019Z,80.79
2022-12-31T06:37:39.587Z,80.64
2022-12-31T06:40:06.890Z,80.46
2022-12-31T06:42:33.326Z,80.60
2022-12-31T06:44:59.755Z,80.90
2022-12-31T06:47:26.352Z,80.12
2022-12-31T06:49:53.222Z,79.73
2022-12-31T06:52:20.332Z,79.73
2022-12-31T06:54:47.129Z,79.44
2022-12-31T06:57:14.280Z,79.05
2022-12-31T06:59:41.566Z,79.31
2022-12-31T07:02:20.268Z,78.89
2022-12-31T07:05:25.338Z,78.80
2022-12-31T07:08:03.511Z,78.34
2022-12-31T07:10:39.065Z,78.73
2022-12-31T07:13:39.537Z,78.47
2022-12-31T07:16:22.692Z,78.58
2022-12-31T07:19:15.767Z,78.60
2022-12-31T07:21:44.386Z,78.49
2022-12-31T07:24:11.856Z,78.60
2022-12-31T07:26:56.969Z,78.55
2022-12-31T07:29:42.110Z,78.20
2022-12-31T07:32:26.885Z,77.96
2022-12-31T07:35:17.168Z,78.29
2022-12-31T07:38:12.200Z,77.81
2022-12-31T07:40:57.817Z,77.97
2022-12-31T07:43:38.425Z,78.27
2022-12-31T07:46:22.430Z,77.78
2022-12-31T07:48:49.215Z,77.37
2022-12-31T07:51:16.274Z,77.49
2022-12-31T07:53:42.708Z,77.33
2022-12-31T07:56:10.094Z,77.84
2022-12-31T07:58:39.581Z,77.26
2022-12-31T08:01:12.636Z,77.42
2022-12-31T08:03:57.273Z,77.27
2022-12-31T08:07:07.803Z,77.11
2022-12-31T08:10:03.277Z,76.88
2022-12-31T08:12:34.364Z,77.15
2022-12-31T08:15:01.765Z,76.84
2022-12-31T08:17:28.575Z,76.66
2022-12-31T08:19:55.200Z,76.18
2022-12-31T08:22:52.826Z,76.16
2022-12-31T08:25:27.974Z,76.13
2022-12-31T08:28:05.374Z,75.96
2022-12-31T08:30:47.689Z,75.94
2022-12-31T08:33:46.578Z,75.36
2022-12-31T08:36:35.137Z,75.20
2022-12-31T08:39:05.138Z,74.97
2022-12-31T08:41:44.948Z,75.01
2022-12-31T08:44:35.694Z,74.75
2022-12-31T08:47:02.071Z,74.76
2022-12-31T08:49:34.229Z,74.86
2022-12-31T08:52:01.786Z,74.55
2022-12-31T08:54:28.996Z,74.47
2022-12-31T08:57:19.980Z,74.23
2022-12-31T09:00:22.058Z,73.72
2022-12-31T09:03:03.007Z,73.79
2022-12-31T09:05:35.185Z,73.86
2022-12-31T09:08:13.543Z,73.86
2022-12-31T09:11:00.213Z,73.51
2022-12-31T09:13:48.434Z,73.55
2022-12-31T09:16:33.573Z,72.71
2022-12-31T09:19:00.141Z,72.22
2022-12-31T09:21:26.908Z,71.53
2022-12-31T09:23:53.686Z,71.01
2022-12-31T09:26:41.876Z,70.68
2022-12-31T09:29:41.813Z,70.37
2022-12-31T09:32:41.805Z,70.06
2022-12-31T09:35:21.921Z,70.08
2022-12-31T09:37:51.332Z,69.88
2022-12-31T09:40:32.916Z,69.83
2022-12-31T09:43:17.794Z,69.49
2022-12-31T09:46:29.238Z,69.43
2022-12-31T09:49:26.812Z,69.00
2022-12-31T09:52:17.252Z,68.71
2022-12-31T09:55:25.951Z,68.11
2022-12-31T09:58:10.992Z,67.52
2022-12-31T10:00:52.839Z,66.84
2022-12-31T10:03:44.722Z,66.77
2022-12-31T10:06:33.135Z,67.06
2022-12-31T10:09:35.976Z,66.22
2022-12-31T10:12:33.617Z,65.75
2022-12-31T10:15:35.357Z,65.12
2022-12-31T10:18:01.766Z,64.59
2022-12-31T10:20:50.232Z,64.92
2022-12-31T10:23:25.811Z,64.84
2022-12-31T10:26:18.974Z,64.62
2022-12-31T10:28:45.564Z,64.28
2022-12-31T10:31:19.529Z,64.08
2022-12-31T10:34:25.586Z,63.52
2022-12-31T10:37:04.316Z,63.84
2022-12-31T10:39:49.401Z,63.00
2022-12-31T10:42:42.351Z,62.83
2022-12-31T10:45:45.068Z,62.40
2022-12-31T10:48:49.911Z,62.74
2022-12-31T10:52:01.830Z,62.40
2022-12-31T10:55:05.398Z,62.45
2022-12-31T10:57:51.568Z,62.53
2022-12-31T11:00:30.694Z,62.29
2022-12-31T11:03:23.458Z,62.62
2022-12-31T11:06:50.084Z,63.25
2022-12-31T11:09:41.897Z,63.53
2022-12-31T11:12:37.586Z,63.26
2022-12-31T11:15:22.761Z,63.50
2022-12-31T11:18:26.919Z,63.26
2022-12-31T11:21:27.846Z,63.16
2022-12-31T11:24:25.346Z,63.39
2022-12-31T11:27:10.502Z,62.74
2022-12-31T11:29:52.259Z,62.81
2022-12-31T11:32:36.986Z,62.66
2022-12-31T11:35:20.826Z,62.60
2022-12-31T11:37:54.375Z,62.45
2022-12-31T11:40:42.055Z,61.75
2022-12-31T11:43:19.973Z,61.95
2022-12-31T11:46:03.966Z,61.97
2022-12-31T11:49:01.687Z,61.79
2022-12-31T11:51:37.308Z,61.57
2022-12-31T11:54:26.290Z,61.47
2022-12-31T11:57:17.462Z,61.23
2022-12-31T11:59:43.985Z,60.99
2022-12-31T12:02:24.974Z,60.98
2022-12-31T12:04:53.516Z,60.42
2022-12-31T12:07:20.867Z,60.14
2022-12-31T12:09:47.529Z,60.34
2022-12-31T12:12:14.110Z,59.89
2022-12-31T12:14:42.945Z,59.79
2022-12-31T12:17:13.761Z,59.73
2022-12-31T12:19:47.046Z,59.64
2022-12-31T12:22:25.890Z,59.43
2022-12-31T12:25:01.632Z,59.18
2022-12-31T12:27:30.291Z,58.99
2022-12-31T12:29:56.876Z,58.67
2022-12-31T12:32:27.126Z,58.48
2022-12-31T12:34:53.605Z,58.78
2022-12-31T12:37:34.555Z,58.64
2022-12-31T12:40:21.669Z,58.42
2022-12-31T12:42:49.517Z,58.17
2022-12-31T12:45:25.786Z,58.36
2022-12-31T12:47:59.457Z,58.03
2022-12-31T12:50:36.320Z,58.74
2022-12-31T12:53:17.150Z,58.34
2022-12-31T12:56:11.903Z,57.93
2022-12-31T12:59:17.290Z,58.06
2022-12-31T13:02:17.322Z,57.70
2022-12-31T13:05:08.731Z,57.60
2022-12-31T13:08:09.293Z,57.48
2022-12-31T13:11:06.068Z,57.44
2022-12-31T13:14:21.196Z,57.35
2022-12-31T13:16:59.211Z,57.20
2022-12-31T13:19:43.153Z,57.28
2022-12-31T13:22:36.769Z,56.88
2022-12-31T13:25:24.824Z,56.73
2022-12-31T13:27:54.068Z,56.54
2022-12-31T13:30:24.325Z,56.51
2022-12-31T13:33:06.535Z,56.28
2022-12-31T13:36:14.034Z,56.50
2022-12-31T13:38:46.028Z,56.62
2022-12-31T13:41:27.405Z,56.57
2022-12-31T13:44:16.565Z,56.55
2022-12-31T13:46:58.937Z,56.80
2022-12-31T13:49:46.778Z,56.72
2022-12-31T13:52:24.403Z,56.97
2022-12-31T13:54:58.555Z,57.17
2022-12-31T13:57:48.105Z,57.11
2022-12-31T14:00:27.324Z,57.18
2022-12-31T14:03:27.406Z,57.18
2022-12-31T14:05:59.949Z,57.45
2022-12-31T14:08:26.799Z,57.43
2022-12-31T14:11:29.293Z,57.15
2022-12-31T14:14:12.394Z,56.85
2022-12-31T14:16:52.524Z,57.00
2022-12-31T14:19:41.587Z,57.00
2022-12-31T14:22:47.514Z,56.88
2022-12-31T14:25:27.633Z,57.16
2022-12-31T14:27:56.477Z,57.48
2022-12-31T14:30:27.717Z,57.19
2022-12-31T14:33:24.214Z,57.01
2022-12-31T14:36:22.702Z,57.13
2022-12-31T14:39:07.037Z,57.03
2022-12-31T14:42:03.998Z,57.27
2022-12-31T14:44:55.293Z,57.16
2022-12-31T14:47:36.063Z,57.26
2022-12-31T14:50:16.049Z,57.46
2022-12-31T14:52:50.510Z,57.39
2022-12-31T14:55:25.454Z,57.35
2022-12-31T14:58:26.574Z,57.39
2022-12-31T15:00:50.789Z,57.24
2022-12-31T15:03:17.371Z,57.48
2022-12-31T15:05:54.878Z,57.40
2022-12-31T15:08:48.572Z,57.53
2022-12-31T15:11:22.785Z,57.13
2022-12-31T15:14:18.431Z,57.40
2022-12-31T15:16:57.846Z,57.69
2022-12-31T15:19:46.420Z,57.85
2022-12-31T15:22:46.164Z,57.45
2022-12-31T15:25:38.466Z,57.46
2022-12-31T15:28:34.620Z,57.45
2022-12-31T15:31:18.968Z,57.62
2022-12-31T15:34:03.541Z,57.61
2022-12-31T15:36:39.314Z,57.24
2022-12-31T15:39:11.822Z,57.60
2022-12-31T15:42:10.440Z,57.49
2022-12-31T15:44:51.805Z,57.65
2022-12-31T15:47:33.418Z,57.18
2022-12-31T15:50:04.058Z,57.36
2022-12-31T15:52:39.633Z,57.49
2022-12-31T15:55:07.838Z,57.61
2022-12-31T15:57:39.263Z,57.57
2022-12-31T16:00:15.757Z,57.62
2022-12-31T16:02:43.257Z,57.62
2022-12-31T16:05:22.130Z,57.61
2022-12-31T16:07:51.622Z,57.76
2022-12-31T16:10:26.867Z,57.72
2022-12-31T16:12:56.263Z,57.63
2022-12-31T16:15:27.439Z,57.52
2022-12-31T16:18:02.926Z,57.67
2022-12-31T16:20:31.764Z,57.61
2022-12-31T16:23:01.779Z,57.42
2022-12-31T16:25:31.924Z,57.30
2022-12-31T16:28:01.581Z,57.29
2022-12-31T16:30:30.644Z,57.30
2022-12-31T16:33:06.096Z,57.29
2022-12-31T16:35:36.257Z,56.89
2022-12-31T16:38:11.265Z,56.74
2022-12-31T16:40:38.363Z,56.60
2022-12-31T16:43:27.989Z,56.27
2022-12-31T16:46:13.488Z,55.66
2022-12-31T16:48:39.992Z,55.78
2022-12-31T16:51:06.847Z,55.25
2022-12-31T16:53:37.823Z,55.18
2022-12-31T16:56:09.011Z,55.27
2022-12-31T16:58:40.763Z,54.54
2022-12-31T17:01:37.257Z,54.29
2022-12-31T17:04:11.445Z,54.26
2022-12-31T17:06:38.101Z,53.66
2022-12-31T17:09:13.863Z,53.09
2022-12-31T17:11:45.331Z,53.39
2022-12-31T17:14:14.757Z,53.24
2022-12-31T17:17:02.843Z,53.38
2022-12-31T17:19:45.951Z,53.40
2022-12-31T17:22:37.220Z,53.27
2022-12-31T17:25:18.134Z,53.31
2022-12-31T17:27:59.294Z,53.65
2022-12-31T17:30:35.091Z,53.49
2022-12-31T17:33:02.737Z,53.56
2022-12-31T17:35:35.059Z,53.67
2022-12-31T17:38:23.412Z,53.84
2022-12-31T17:41:13.185Z,53.93
2022-12-31T17:43:40.266Z,53.95
2022-12-31T17:46:13.714Z,54.14
2022-12-31T17:48:41.327Z,54.29
2022-12-31T17:51:07.758Z,54.27
2022-12-31T17:53:34.463Z,54.29
2022-12-31T17:56:04.441Z,54.53
2022-12-31T17:58:46.887Z,54.49
2022-12-31T18:01:16.441Z,54.87
2022-12-31T18:03:43.708Z,54.89
2022-12-31T18:06:16.276Z,55.14
2022-12-31T18:08:43.383Z,55.13
2022-12-31T18:11:19.694Z,55.02
2022-12-31T18:13:46.614Z,55.48
2022-12-31T18:16:13.308Z,55.96
2022-12-31T18:18:41.782Z,56.23
2022-12-31T18:21:26.981Z,56.17
2022-12-31T18:26:23.783Z,55.33
2022-12-31T18:28:50.687Z,54.11
2022-12-31T18:31:29.949Z,53.60
2022-12-31T18:33:58.298Z,53.04
2022-12-31T18:36:28.456Z,53.28
2022-12-31T18:38:54.919Z,53.09
2022-12-31T18:41:24.294Z,53.23
2022-12-31T18:43:51.173Z,53.39
2022-12-31T18:46:20.008Z,53.09
2022-12-31T18:48:46.521Z,53.28
2022-12-31T18:51:15.056Z,53.62
2022-12-31T18:53:41.529Z,53.44
2022-12-31T18:56:26.477Z,53.74
2022-12-31T18:58:52.997Z,54.39
2022-12-31T19:01:27.241Z,54.78
2022-12-31T19:03:56.383Z,55.09
2022-12-31T19:06:23.320Z,55.88
2022-12-31T19:08:49.904Z,55.86
2022-12-31T19:11:16.509Z,55.63
2022-12-31T19:13:42.988Z,55.93
2022-12-31T19:16:09.879Z,56.21
2022-12-31T19:18:36.753Z,56.27
2022-12-31T19:21:03.767Z,56.50
2022-12-31T19:23:30.339Z,56.26
2022-12-31T19:25:56.810Z,56.46
2022-12-31T19:28:26.786Z,56.41
2022-12-31T19:30:54.134Z,56.71
2022-12-31T19:33:23.041Z,56.53
2022-12-31T19:35:49.534Z,56.39
2022-12-31T19:38:23.636Z,56.50
2022-12-31T19:40:51.970Z,56.20
2022-12-31T19:43:20.478Z,56.40
2022-12-31T19:45:47.944Z,56.11
2022-12-31T19:48:17.300Z,55.79
2022-12-31T19:50:46.788Z,55.98
2022-12-31T19:53:16.639Z,55.90
2022-12-31T19:55:43.190Z,55.67
2022-12-31T19:58:16.803Z,55.90
2022-12-31T20:00:47.950Z,56.12
2022-12-31T20:03:18.125Z,56.52
2022-12-31T20:05:45.507Z,56.71
2022-12-31T20:08:14.423Z,56.55
2022-12-31T20:10:40.875Z,57.30
2022-12-31T20:13:07.322Z,56.81
2022-12-31T20:15:33.879Z,56.92
2022-12-31T20:18:00.367Z,56.60
2022-12-31T20:20:29.176Z,56.73
2022-12-31T20:22:57.480Z,56.40
2022-12-31T20:25:25.127Z,56.45
2022-12-31T20:27:55.397Z,56.12
2022-12-31T20:30:23.005Z,55.90
2022-12-31T20:32:51.646Z,55.70
2022-12-31T20:35:18.967Z,55.14
2022-12-31T20:37:46.036Z,55.00
2022-12-31T20:40:13.107Z,54.92
2022-12-31T20:42:40.642Z,54.31
2022-12-31T20:45:10.746Z,54.30
2022-12-31T20:47:37.598Z,54.13
2022-12-31T20:50:12.698Z,54.20
2022-12-31T20:52:39.724Z,54.36
2022-12-31T20:55:06.644Z,54.28
2022-12-31T20:57:33.954Z,54.14
2022-12-31T21:00:00.947Z,54.00
2022-12-31T21:02:40.989Z,54.23
2022-12-31T21:05:09.310Z,53.98
2022-12-31T21:07:35.936Z,53.99
2022-12-31T21:10:02.350Z,54.17
2022-12-31T21:12:43.737Z,54.20
2022-12-31T21:15:11.977Z,54.00
2022-12-31T21:17:38.513Z,54.16
2022-12-31T21:20:05.913Z,54.41
2022-12-31T21:22:33.733Z,54.63
2022-12-31T21:25:02.098Z,54.78
2022-12-31T21:27:29.708Z,55.00
2022-12-31T21:32:43.302Z,55.77
2022-12-31T21:38:00.837Z,56.80
2022-12-31T21:40:27.922Z,57.25
2022-12-31T21:42:54.338Z,57.41
2022-12-31T21:45:20.830Z,57.60
2022-12-31T21:48:05.624Z,57.92
2022-12-31T21:50:33.018Z,58.42
2022-12-31T21:52:59.591Z,58.43
2022-12-31T21:55:44.767Z,58.29
2022-12-31T21:58:27.947Z,58.49
2022-12-31T22:01:14.606Z,58.68
2022-12-31T22:03:41.493Z,58.79
2022-12-31T22:06:21.719Z,59.25
2022-12-31T22:08:50.749Z,59.26
2022-12-31T22:11:19.282Z,59.16
2022-12-31T22:13:46.717Z,59.02
2022-12-31T22:16:14.116Z,58.99
2022-12-31T22:18:43.890Z,59.32
2022-12-31T22:21:20.479Z,59.35
2022-12-31T22:23:52.525Z,59.83
2022-12-31T22:26:21.691Z,59.16
2022-12-31T22:28:48.418Z,59.43
2022-12-31T22:31:20.580Z,59.22
2022-12-31T22:33:47.389Z,59.53
2022-12-31T22:36:17.131Z,59.52
2022-12-31T22:38:44.010Z,59.88
2022-12-31T22:41:18.086Z,60.09
2022-12-31T22:43:47.083Z,60.12
2022-12-31T22:46:22.195Z,60.84
2022-12-31T22:48:49.139Z,61.05
2022-12-31T22:51:16.898Z,61.50
2022-12-31T22:53:43.588Z,61.74
2022-12-31T22:56:12.262Z,61.86
2022-12-31T22:58:38.717Z,61.42
2022-12-31T23:01:15.202Z,62.16
2022-12-31T23:03:44.939Z,62.50
2022-12-31T23:06:11.548Z,62.78
2022-12-31T23:08:38.091Z,62.40
2022-12-31T23:11:09.446Z,62.65
2022-12-31T23:13:59.629Z,63.24
2022-12-31T23:16:47.044Z,63.08
2022-12-31T23:19:32.980Z,63.47
2022-12-31T23:22:17.894Z,63.22
2022-12-31T23:24:44.336Z,63.19
2022-12-31T23:27:11.469Z,63.50
2022-12-31T23:29:46.183Z,63.01
2022-12-31T23:32:13.810Z,63.45
2022-12-31T23:34:40.243Z,63.00
2022-12-31T23:37:06.688Z,63.53
2022-12-31T23:39:33.109Z,63.31
2022-12-31T23:42:00.167Z,63.21
2022-12-31T23:44:27.360Z,63.23
2022-12-31T23:46:54.671Z,62.97
2022-12-31T23:49:21.123Z,62.59
2022-12-31T23:51:48.221Z,62.59
2022-12-31T23:54:15.813Z,62.35
2022-12-31T23:56:42.355Z,62.58
2022-12-31T23:59:10.714Z,62.44
